Time;durP1;ratioP1;P1;durP2;ratioP2;P2;SDS_P1;SDS_P2;PMS_P1;PMS_P2;Temp;Humidity;BMP_temperature;BMP_pressure;BME280_temperature;BME280_humidity;BME280_pressure;Samples;Min_cycle;Max_cycle;Signal;HPM_P1;HPM_P2
2022/06/10 00:00:18;;;;;;;19.12;14.10;;;;;;;16.91;100.00;99254.72;4465237;32;34968;-75
2022/06/10 00:03:05;;;;;;;19.23;15.10;;;;;;;17.04;100.00;99261.69;4462426;32;34794;-76
2022/06/10 00:06:00;;;;;;;19.58;14.98;;;;;;;16.74;100.00;99252.31;4464476;32;34827;-75
2022/06/10 00:08:48;;;;;;;20.95;13.70;;;;;;;16.79;100.00;99260.34;4463711;32;34580;-74
2022/06/10 00:11:34;;;;;;;16.50;12.98;;;;;;;17.01;100.00;99272.69;4460824;32;33849;-74
2022/06/10 00:14:21;;;;;;;18.75;13.68;;;;;;;16.77;100.00;99262.69;4461328;32;34297;-75
2022/06/10 00:17:07;;;;;;;20.88;14.73;;;;;;;16.69;100.00;99271.97;4453576;32;34109;-75
2022/06/10 00:19:54;;;;;;;16.98;13.27;;;;;;;16.80;100.00;99270.28;4465394;32;36685;-74
2022/06/10 00:22:40;;;;;;;17.17;12.70;;;;;;;16.87;100.00;99268.44;4465365;32;34947;-74
2022/06/10 00:25:27;;;;;;;18.12;12.60;;;;;;;17.04;100.00;99272.75;4462125;32;35413;-75
2022/06/10 00:28:14;;;;;;;18.23;13.13;;;;;;;16.71;100.00;99264.13;4463994;32;34285;-76
2022/06/10 00:31:01;;;;;;;18.90;12.95;;;;;;;16.61;100.00;99271.78;4462534;32;34716;-74
2022/06/10 00:33:47;;;;;;;16.95;12.77;;;;;;;16.79;100.00;99272.25;4459861;32;34965;-75
2022/06/10 00:36:34;;;;;;;17.20;13.40;;;;;;;17.05;100.00;99279.13;4461859;32;35428;-75
2022/06/10 00:39:20;;;;;;;17.15;12.80;;;;;;;17.06;100.00;99277.94;4461139;32;34156;-76
2022/06/10 00:42:07;;;;;;;16.55;12.15;;;;;;;17.35;100.00;99290.41;4462930;32;35279;-75
2022/06/10 00:44:54;;;;;;;15.32;11.70;;;;;;;17.58;100.00;99286.88;4459416;32;34576;-75
2022/06/10 00:47:42;;;;;;;17.00;11.70;;;;;;;17.34;100.00;99285.25;4463753;32;35514;-75
2022/06/10 00:50:30;;;;;;;17.30;11.77;;;;;;;17.23;100.00;99291.34;4459397;32;33827;-76
2022/06/10 00:53:20;;;;;;;17.98;12.18;;;;;;;17.17;100.00;99292.03;4462447;32;35627;-76
2022/06/10 00:56:12;;;;;;;21.02;12.93;;;;;;;16.84;100.00;99284.97;4462749;32;34492;-75
2022/06/10 00:59:02;;;;;;;20.88;13.35;;;;;;;17.01;100.00;99294.84;4459969;32;34980;-76
2022/06/10 01:01:54;;;;;;;15.90;12.63;;;;;;;16.99;100.00;99292.44;4462800;32;34448;-76
2022/06/10 01:04:41;;;;;;;19.35;13.35;;;;;;;17.16;100.00;99290.41;4463497;32;34689;-76
2022/06/10 01:07:33;;;;;;;17.42;13.40;;;;;;;16.89;100.00;99286.66;4463494;32;36980;-75
2022/06/10 01:10:20;;;;;;;19.00;14.18;;;;;;;16.82;100.00;99282.59;4464362;32;34611;-77
2022/06/10 01:13:19;;;;;;;18.25;14.30;;;;;;;16.51;100.00;99283.44;4462456;32;34236;-74
2022/06/10 01:16:34;;;;;;;17.08;14.02;;;;;;;16.49;100.00;99294.03;4450604;32;34690;-76
2022/06/10 01:19:49;;;;;;;19.45;15.68;;;;;;;16.60;100.00;99291.53;4464646;32;35043;-76
2022/06/10 01:22:57;;;;;;;20.23;14.07;;;;;;;16.41;100.00;99292.25;4464001;32;32953;-76
2022/06/10 01:26:01;;;;;;;18.23;14.77;;;;;;;16.48;100.00;99295.22;4464288;32;33733;-76
2022/06/10 01:29:37;;;;;;;21.40;15.27;;;;;;;16.54;100.00;99304.03;4464968;32;34266;-76
2022/06/10 01:32:33;;;;;;;22.77;15.45;;;;;;;16.99;100.00;99306.28;4448660;32;34910;-76
2022/06/10 01:35:38;;;;;;;21.67;15.85;;;;;;;16.91;100.00;99312.81;4464164;32;35579;-77
2022/06/10 01:38:27;;;;;;;19.15;15.13;;;;;;;16.69;100.00;99303.19;4464264;32;33820;-75
2022/06/10 01:41:34;;;;;;;21.45;16.15;;;;;;;16.48;100.00;99305.44;4463758;32;34737;-76
2022/06/10 01:44:34;;;;;;;21.37;16.37;;;;;;;16.45;100.00;99304.22;4461532;32;35121;-77
2022/06/10 01:47:26;;;;;;;20.08;15.63;;;;;;;16.86;100.00;99307.56;4462234;32;35138;-76
2022/06/10 01:50:46;;;;;;;19.00;15.30;;;;;;;16.80;100.00;99309.00;4461337;32;35028;-75
2022/06/10 01:53:40;;;;;;;20.92;16.12;;;;;;;17.00;100.00;99318.94;4436483;32;34132;-76
2022/06/10 01:56:34;;;;;;;20.92;15.95;;;;;;;16.70;100.00;99317.81;4461487;32;33754;-74
2022/06/10 01:59:44;;;;;;;20.40;16.90;;;;;;;16.50;100.00;99311.44;4461640;32;34399;-75
2022/06/10 02:02:33;;;;;;;23.90;17.62;;;;;;;16.35;100.00;99321.34;4462320;32;34356;-76
2022/06/10 02:05:22;;;;;;;23.23;17.15;;;;;;;16.30;100.00;99350.03;4461929;32;34655;-76
2022/06/10 02:08:15;;;;;;;23.40;17.20;;;;;;;16.58;100.00;99366.56;4461259;32;35945;-75
2022/06/10 02:11:14;;;;;;;26.10;18.15;;;;;;;16.93;100.00;99371.34;4465779;32;34308;-75
2022/06/10 02:14:07;;;;;;;23.05;17.60;;;;;;;16.87;100.00;99356.19;4452328;32;34209;-76
2022/06/10 02:16:55;;;;;;;20.12;16.37;;;;;;;16.66;100.00;99366.75;4464656;32;34737;-76
2022/06/10 02:19:45;;;;;;;22.42;16.58;;;;;;;17.11;100.00;99365.44;4461247;32;33821;-76
2022/06/10 02:22:37;;;;;;;21.80;16.77;;;;;;;16.97;100.00;99366.72;4459703;32;34480;-76
2022/06/10 02:25:25;;;;;;;23.40;16.30;;;;;;;16.76;100.00;99374.47;4461040;32;35181;-77
2022/06/10 02:28:19;;;;;;;21.70;17.12;;;;;;;17.43;100.00;99383.53;4460799;32;34770;-77
2022/06/10 02:31:16;;;;;;;20.33;16.73;;;;;;;17.60;100.00;99403.69;4461912;32;34998;-77
2022/06/10 02:34:03;;;;;;;20.65;16.23;;;;;;;17.21;100.00;99403.62;4451689;32;35310;-77
2022/06/10 02:36:55;;;;;;;22.85;16.60;;;;;;;17.09;100.00;99413.66;4463280;32;34242;-75
2022/06/10 02:40:16;;;;;;;22.92;17.15;;;;;;;17.47;100.00;99422.37;4450182;32;34313;-76
2022/06/10 02:43:05;;;;;;;19.95;16.87;;;;;;;17.36;100.00;99422.19;4457847;32;34775;-77
2022/06/10 02:46:06;;;;;;;26.10;19.55;;;;;;;16.80;100.00;99423.25;4464266;32;35261;-75
2022/06/10 02:49:18;;;;;;;28.53;21.20;;;;;;;16.64;100.00;99414.91;4460644;32;34160;-75
2022/06/10 02:52:06;;;;;;;30.37;21.85;;;;;;;16.26;100.00;99418.28;4461480;32;35571;-76
2022/06/10 02:54:52;;;;;;;28.75;22.35;;;;;;;16.53;100.00;99427.66;4449997;32;35788;-76
2022/06/10 03:01:16;;;;;;;27.23;22.05;;;;;;;16.76;100.00;99432.56;4462685;32;34444;-76
2022/06/10 03:04:09;;;;;;;29.83;22.87;;;;;;;16.72;100.00;99445.53;4462856;32;34234;-76
2022/06/10 03:07:09;;;;;;;28.92;24.83;;;;;;;16.22;100.00;99436.72;4461156;32;35908;-77
2022/06/10 03:10:08;;;;;;;31.35;25.33;;;;;;;16.09;100.00;99419.41;4462433;32;35599;-77
2022/06/10 03:13:15;;;;;;;31.85;24.63;;;;;;;15.92;100.00;99420.50;4464600;32;34384;-77
2022/06/10 03:16:07;;;;;;;33.90;27.92;;;;;;;16.07;100.00;99435.53;4463710;32;34331;-77
2022/06/10 03:18:53;;;;;;;34.35;26.45;;;;;;;16.01;100.00;99430.63;4465921;32;34545;-78
2022/06/10 03:21:41;;;;;;;33.08;25.95;;;;;;;16.22;100.00;99430.37;4464382;32;35522;-76
2022/06/10 03:24:51;;;;;;;30.98;25.08;;;;;;;16.06;100.00;99430.37;4465000;32;34757;-76
2022/06/10 03:27:49;;;;;;;32.55;24.87;;;;;;;16.65;100.00;99432.31;4461744;32;35289;-76
2022/06/10 03:30:50;;;;;;;33.90;25.37;;;;;;;16.15;100.00;99442.06;4460818;32;34683;-76
2022/06/10 03:33:42;;;;;;;37.22;27.15;;;;;;;16.35;100.00;99443.00;4463044;32;35189;-75
2022/06/10 03:36:31;;;;;;;36.83;27.27;;;;;;;16.04;100.00;99435.44;4460854;32;34832;-76
2022/06/10 03:39:20;;;;;;;38.75;27.92;;;;;;;16.15;100.00;99450.34;4463197;32;34743;-75
2022/06/10 03:42:14;;;;;;;33.33;26.33;;;;;;;16.32;100.00;99441.75;4462203;32;34557;-77
2022/06/10 03:45:00;;;;;;;38.80;28.52;;;;;;;16.27;100.00;99446.72;4464655;32;34719;-75
2022/06/10 03:47:47;;;;;;;33.30;26.25;;;;;;;16.21;100.00;99450.91;4454085;32;34131;-77
2022/06/10 03:50:38;;;;;;;35.25;27.08;;;;;;;16.09;100.00;99465.59;4464537;32;34702;-75
2022/06/10 03:53:25;;;;;;;32.15;26.37;;;;;;;16.03;100.00;99455.94;4464748;32;35013;-76
2022/06/10 03:56:12;;;;;;;32.42;25.98;;;;;;;16.43;100.00;99453.09;4463982;32;34443;-75
2022/06/10 03:58:58;;;;;;;31.37;23.58;;;;;;;16.11;100.00;99461.31;4462391;32;35137;-77
2022/06/10 04:01:45;;;;;;;34.20;26.48;;;;;;;16.08;100.00;99453.72;4464365;32;35599;-76
2022/06/10 04:04:32;;;;;;;34.03;26.67;;;;;;;16.12;100.00;99460.16;4453856;32;34764;-76
2022/06/10 04:07:19;;;;;;;34.42;25.58;;;;;;;16.11;100.00;99463.28;4464866;32;34623;-74
2022/06/10 04:10:08;;;;;;;36.33;25.83;;;;;;;16.35;100.00;99470.66;4463121;32;34347;-75
2022/06/10 04:12:54;;;;;;;35.22;25.73;;;;;;;16.30;100.00;99468.94;4463047;32;34656;-75
2022/06/10 04:15:40;;;;;;;31.27;25.73;;;;;;;16.68;100.00;99484.16;4463212;32;35992;-76
2022/06/10 04:18:27;;;;;;;32.33;24.55;;;;;;;16.55;100.00;99472.38;4463775;32;34237;-75
2022/06/10 04:21:14;;;;;;;34.92;23.62;;;;;;;17.24;100.00;99474.87;4462587;32;34229;-76
2022/06/10 04:24:00;;;;;;;27.15;21.67;;;;;;;16.46;100.00;99471.72;4455956;32;35599;-76
2022/06/10 04:26:46;;;;;;;29.02;21.27;;;;;;;16.51;100.00;99473.44;4458915;32;170692;-76
2022/06/10 04:29:33;;;;;;;25.17;21.10;;;;;;;16.42;100.00;99477.19;4463687;32;34049;-76
2022/06/10 04:32:19;;;;;;;26.35;20.60;;;;;;;16.48;100.00;99477.72;4462293;32;34538;-76
2022/06/10 04:35:06;;;;;;;25.83;20.75;;;;;;;16.68;100.00;99481.41;4454410;32;35625;-74
2022/06/10 04:37:53;;;;;;;26.90;21.20;;;;;;;16.71;100.00;99488.19;4464328;32;35050;-75
2022/06/10 04:40:40;;;;;;;24.23;19.42;;;;;;;16.56;100.00;99482.28;4461364;32;35345;-76
2022/06/10 04:43:27;;;;;;;21.58;18.70;;;;;;;16.37;100.00;99485.72;4463378;32;35087;-77
2022/06/10 04:46:25;;;;;;;22.73;17.77;;;;;;;16.44;100.00;99493.41;4448953;32;35850;-76
2022/06/10 04:49:12;;;;;;;20.60;17.08;;;;;;;16.45;100.00;99495.03;4460215;32;35970;-80
2022/06/10 04:51:58;;;;;;;23.33;17.60;;;;;;;16.74;100.00;99484.72;4458962;32;34861;-77
2022/06/10 04:54:45;;;;;;;22.17;17.62;;;;;;;16.38;100.00;99489.28;4457933;32;33896;-78
2022/06/10 04:57:32;;;;;;;24.42;16.50;;;;;;;16.51;100.00;99499.13;4459550;32;35260;-77
2022/06/10 05:00:26;;;;;;;19.65;16.77;;;;;;;16.47;100.00;99506.50;4461400;32;36039;-77
2022/06/10 05:03:13;;;;;;;19.20;15.82;;;;;;;16.63;100.00;99501.81;4459326;32;34356;-76
2022/06/10 05:05:59;;;;;;;20.50;15.73;;;;;;;16.73;100.00;99506.00;4454972;32;34200;-76
2022/06/10 05:08:45;;;;;;;21.92;15.07;;;;;;;16.58;100.00;99504.84;4454716;32;34758;-76
2022/06/10 05:11:31;;;;;;;19.73;15.90;;;;;;;17.07;100.00;99507.31;4459440;32;34704;-77
2022/06/10 05:14:18;;;;;;;17.27;14.45;;;;;;;16.88;100.00;99512.78;4456858;32;35110;-84
2022/06/10 05:17:04;;;;;;;17.33;13.85;;;;;;;16.80;100.00;99517.31;4464091;32;34317;-84
2022/06/10 05:19:51;;;;;;;15.38;13.50;;;;;;;16.95;100.00;99503.84;4462190;32;35491;-80
2022/06/10 05:22:41;;;;;;;16.48;12.90;;;;;;;17.01;100.00;99514.28;4453102;32;35476;-81
2022/06/10 05:25:29;;;;;;;16.62;13.65;;;;;;;17.37;100.00;99517.12;4461069;32;34121;-79
2022/06/10 05:28:16;;;;;;;14.70;12.18;;;;;;;17.55;100.00;99518.34;4446946;32;34245;-82
2022/06/10 05:31:02;;;;;;;15.45;12.60;;;;;;;17.24;100.00;99524.72;4451682;32;34262;-82
2022/06/10 05:36:54;;;;;;;15.63;12.40;;;;;;;17.44;100.00;99534.69;4459942;32;34070;-81
2022/06/10 05:39:40;;;;;;;15.90;11.65;;;;;;;17.52;100.00;99539.25;4461561;32;34233;-82
2022/06/10 05:42:26;;;;;;;16.42;12.60;;;;;;;17.66;100.00;99540.75;4447381;32;34601;-83
2022/06/10 05:45:17;;;;;;;15.98;12.43;;;;;;;17.89;100.00;99544.47;4458207;32;35789;-82
2022/06/10 05:48:04;;;;;;;12.15;10.35;;;;;;;18.12;100.00;99554.84;4447720;32;35006;-80
2022/06/10 05:50:50;;;;;;;13.82;11.85;;;;;;;17.96;100.00;99552.16;4456189;32;34469;-84
2022/06/10 05:53:37;;;;;;;15.13;11.65;;;;;;;17.87;100.00;99552.37;4459084;32;36673;-81
2022/06/10 05:56:23;;;;;;;14.68;11.88;;;;;;;18.02;100.00;99555.44;4444175;32;35788;-80
2022/06/10 05:59:11;;;;;;;17.08;11.65;;;;;;;18.30;100.00;99553.28;4455032;32;33573;-83
2022/06/10 06:01:57;;;;;;;14.50;11.57;;;;;;;18.05;100.00;99572.16;4445706;32;36308;-81
2022/06/10 06:04:43;;;;;;;15.55;11.93;;;;;;;18.03;100.00;99562.59;4456519;32;34692;-85
2022/06/10 06:07:31;;;;;;;15.95;12.90;;;;;;;18.05;100.00;99568.59;4460118;32;35813;-82
2022/06/10 06:10:21;;;;;;;18.27;12.57;;;;;;;18.01;100.00;99573.22;4458663;32;34642;-79
2022/06/10 06:13:07;;;;;;;13.75;11.70;;;;;;;18.29;100.00;99582.16;4452093;32;34119;-81
2022/06/10 06:15:54;;;;;;;14.48;10.20;;;;;;;18.41;100.00;99576.50;4441719;32;34103;-81
2022/06/10 06:18:41;;;;;;;13.25;10.82;;;;;;;18.45;100.00;99575.75;4455746;32;34997;-81
2022/06/10 06:21:27;;;;;;;14.60;10.50;;;;;;;18.55;100.00;99575.16;4451929;32;34045;-85
2022/06/10 06:24:14;;;;;;;15.77;11.20;;;;;;;18.20;100.00;99584.34;4450185;32;32820;-85
2022/06/10 06:27:01;;;;;;;17.70;11.45;;;;;;;18.67;100.00;99575.00;4455634;32;34681;-86
2022/06/10 06:29:47;;;;;;;12.32;9.55;;;;;;;18.77;100.00;99587.50;4457154;32;35289;-84
2022/06/10 06:32:34;;;;;;;12.80;9.90;;;;;;;19.12;100.00;99583.78;4459925;32;35102;-88
2022/06/10 06:35:21;;;;;;;12.40;8.98;;;;;;;18.90;100.00;99585.34;4459348;32;33823;-88
2022/06/10 06:38:08;;;;;;;14.13;8.70;;;;;;;19.28;100.00;99593.59;4459260;32;35311;-79
2022/06/10 06:40:54;;;;;;;13.82;8.52;;;;;;;19.55;100.00;99588.91;4460577;32;34140;-80
2022/06/10 06:43:40;;;;;;;10.63;8.57;;;;;;;19.34;100.00;99588.53;4449017;32;34845;-79
2022/06/10 06:46:27;;;;;;;13.00;8.73;;;;;;;19.24;100.00;99601.06;4459753;32;34179;-80
2022/06/10 06:49:16;;;;;;;9.98;7.72;;;;;;;19.36;100.00;99602.88;4458775;32;35878;-85
2022/06/10 06:52:05;;;;;;;13.82;8.88;;;;;;;19.59;100.00;99605.63;4449054;32;34540;-84
2022/06/10 06:54:52;;;;;;;12.52;8.73;;;;;;;19.42;100.00;99606.13;4457265;32;34038;-86
2022/06/10 06:57:39;;;;;;;10.07;8.35;;;;;;;19.75;100.00;99603.53;4454279;32;34123;-86
2022/06/10 07:00:27;;;;;;;12.80;7.90;;;;;;;19.90;100.00;99595.41;4444361;32;34674;-83
2022/06/10 07:03:14;;;;;;;10.00;7.97;;;;;;;20.47;100.00;99604.53;4457701;32;34325;-81
2022/06/10 07:06:00;;;;;;;9.70;6.65;;;;;;;20.58;100.00;99599.91;4461425;32;34632;-81
2022/06/10 07:08:47;;;;;;;9.88;6.82;;;;;;;20.07;100.00;99603.19;4460497;32;34109;-84
2022/06/10 07:11:35;;;;;;;7.43;5.80;;;;;;;20.60;97.06;99603.09;4460216;32;34574;-85
2022/06/10 07:14:26;;;;;;;10.13;6.75;;;;;;;20.92;94.42;99613.84;4451961;32;34926;-91
2022/06/10 07:17:12;;;;;;;7.85;6.00;;;;;;;21.14;96.87;99602.91;4459086;32;34604;-88
2022/06/10 07:19:59;;;;;;;12.02;7.10;;;;;;;21.27;94.37;99596.66;4464474;32;33954;-90
2022/06/10 07:22:46;;;;;;;11.18;6.70;;;;;;;21.32;95.17;99601.09;4463077;32;34705;-83
2022/06/10 07:25:32;;;;;;;9.00;6.32;;;;;;;21.70;92.72;99596.25;4460845;32;34905;-88
2022/06/10 07:28:19;;;;;;;12.68;6.80;;;;;;;21.88;89.90;99594.38;4460800;32;33809;-87
2022/06/10 07:31:05;;;;;;;7.50;6.22;;;;;;;21.59;94.36;99601.72;4459819;32;33942;-86
2022/06/10 07:33:52;;;;;;;9.80;5.93;;;;;;;21.01;93.12;99605.97;4461265;32;35205;-82
2022/06/10 07:36:39;;;;;;;8.40;6.30;;;;;;;20.81;94.36;99612.91;4460717;32;35887;-84
2022/06/10 07:39:26;;;;;;;9.75;6.07;;;;;;;21.02;94.83;99601.19;4446050;32;35100;-85
2022/06/10 07:42:12;;;;;;;8.25;6.25;;;;;;;21.46;93.13;99592.88;4455996;32;33990;-84
2022/06/10 07:44:58;;;;;;;7.10;4.32;;;;;;;21.51;95.52;99598.06;4456816;32;34637;-84
2022/06/10 07:47:45;;;;;;;7.07;5.18;;;;;;;22.37;83.41;99586.69;4452334;32;34842;-83
2022/06/10 07:50:32;;;;;;;7.20;4.53;;;;;;;22.64;85.50;99606.75;4456068;32;34487;-83
2022/06/10 07:53:19;;;;;;;6.93;4.20;;;;;;;23.26;77.32;99600.94;4457930;32;34222;-83
2022/06/10 07:56:06;;;;;;;5.80;3.42;;;;;;;23.39;78.40;99595.75;4461803;32;34686;-79
2022/06/10 07:58:53;;;;;;;6.35;3.53;;;;;;;23.22;73.28;99600.13;4460079;32;34674;-82
2022/06/10 08:01:40;;;;;;;6.55;4.72;;;;;;;23.61;71.97;99606.94;4461532;32;34609;-81
2022/06/10 08:04:26;;;;;;;7.00;5.00;;;;;;;23.03;79.96;99606.91;4460640;32;33163;-79
2022/06/10 08:07:13;;;;;;;7.62;5.35;;;;;;;22.98;81.47;99600.91;4461710;32;34157;-81
2022/06/10 08:09:59;;;;;;;9.43;5.87;;;;;;;22.88;84.92;99608.00;4463266;32;35120;-80
2022/06/10 08:12:47;;;;;;;15.10;6.10;;;;;;;22.80;82.97;99612.81;4462982;32;34606;-82
2022/06/10 08:15:34;;;;;;;8.02;5.60;;;;;;;22.78;84.33;99609.59;4455975;32;34776;-82
2022/06/10 08:18:21;;;;;;;7.70;3.80;;;;;;;22.47;84.46;99613.88;4450007;32;35151;-80
2022/06/10 08:24:13;;;;;;;4.93;3.40;;;;;;;22.42;73.40;99612.25;4460720;32;34614;-80
2022/06/10 08:26:59;;;;;;;8.32;3.42;;;;;;;22.84;70.03;99627.56;4460237;32;34124;-80
2022/06/10 08:29:45;;;;;;;7.68;3.53;;;;;;;22.81;70.19;99622.78;4457607;32;34239;-81
2022/06/10 08:32:32;;;;;;;6.32;2.75;;;;;;;22.99;70.46;99624.84;4454502;32;34864;-82
2022/06/10 08:35:18;;;;;;;7.75;4.47;;;;;;;22.99;69.66;99624.84;4448919;32;34481;-84
2022/06/10 08:38:07;;;;;;;8.48;4.95;;;;;;;23.16;74.06;99626.09;4462145;32;33966;-85
2022/06/10 08:41:12;;;;;;;9.30;6.00;;;;;;;22.85;79.23;99625.56;4462139;32;35057;-86
2022/06/10 08:44:11;;;;;;;8.90;5.15;;;;;;;22.64;81.79;99632.69;4461725;32;36081;-88
2022/06/10 08:47:12;;;;;;;9.55;5.28;;;;;;;22.95;81.29;99630.44;4462023;32;34398;-84
2022/06/10 08:50:26;;;;;;;10.10;5.57;;;;;;;22.59;79.71;99630.25;4457580;32;35071;-85
2022/06/10 08:53:47;;;;;;;10.95;6.20;;;;;;;22.45;84.88;99635.78;4462054;32;35487;-82
2022/06/10 08:56:37;;;;;;;8.82;6.30;;;;;;;22.27;86.40;99635.69;4452172;32;34856;-82
2022/06/10 08:59:28;;;;;;;9.18;6.45;;;;;;;22.06;88.30;99641.94;4450091;32;34666;-82
2022/06/10 09:02:31;;;;;;;9.50;6.20;;;;;;;22.10;89.66;99633.56;4460931;32;35180;-85
2022/06/10 09:05:27;;;;;;;11.25;7.00;;;;;;;22.50;86.06;99652.16;4459975;32;34296;-84
2022/06/10 09:08:17;;;;;;;9.38;6.30;;;;;;;22.39;86.71;99646.53;4458927;32;34970;-81
2022/06/10 09:11:37;;;;;;;10.82;6.43;;;;;;;22.28;85.69;99654.03;4451884;32;33972;-81
2022/06/10 09:14:25;;;;;;;10.63;7.25;;;;;;;22.63;87.50;99647.84;4463044;32;34684;-81
2022/06/10 09:17:20;;;;;;;9.35;6.47;;;;;;;22.31;86.81;99647.66;4438973;32;35490;-80
2022/06/10 09:20:19;;;;;;;10.07;7.50;;;;;;;22.56;86.45;99647.00;4450212;32;34298;-80
2022/06/10 09:23:17;;;;;;;10.88;7.47;;;;;;;22.36;88.42;99661.25;4460180;32;34562;-79
2022/06/10 09:26:10;;;;;;;13.57;6.82;;;;;;;22.99;87.54;99647.19;4458695;32;35134;-81
2022/06/10 09:28:56;;;;;;;14.18;8.23;;;;;;;23.56;83.28;99648.13;4462641;32;34353;-85
2022/06/10 09:32:01;;;;;;;8.95;7.00;;;;;;;23.74;81.87;99650.13;4450079;32;34975;-83
2022/06/10 09:35:17;;;;;;;9.75;7.40;;;;;;;23.58;80.95;99644.91;4460401;32;35792;-88
2022/06/10 09:38:10;;;;;;;11.82;7.10;;;;;;;23.86;80.69;99641.34;4463564;32;34329;-86
2022/06/10 09:41:06;;;;;;;8.10;6.70;;;;;;;23.87;81.36;99647.72;4463266;32;34287;-90
2022/06/10 09:44:04;;;;;;;10.57;6.68;;;;;;;24.17;79.59;99650.87;4462022;32;34587;-84
2022/06/10 09:47:07;;;;;;;8.68;6.60;;;;;;;24.30;79.46;99650.44;4459998;32;34275;-81
2022/06/10 09:50:25;;;;;;;11.10;7.10;;;;;;;24.60;77.93;99656.41;4460571;32;33792;-82
2022/06/10 09:53:19;;;;;;;10.80;6.80;;;;;;;24.14;75.65;99646.09;4439502;32;34468;-82
2022/06/10 09:56:36;;;;;;;10.55;7.07;;;;;;;24.56;77.82;99647.22;4461376;32;35051;-81
2022/06/10 10:00:04;;;;;;;9.25;7.12;;;;;;;24.74;76.56;99651.94;4455626;32;35726;-81
2022/06/10 10:03:31;;;;;;;9.13;6.40;;;;;;;24.54;75.70;99655.22;4443307;32;33616;-89
2022/06/10 10:06:34;;;;;;;7.80;6.53;;;;;;;24.54;76.68;99660.03;4461447;32;34580;-81
2022/06/10 10:09:26;;;;;;;8.43;5.78;;;;;;;24.89;76.65;99648.66;4462072;32;35944;-81
2022/06/10 10:12:28;;;;;;;7.50;6.03;;;;;;;25.08;70.62;99644.56;4461289;32;34036;-83
2022/06/10 10:15:26;;;;;;;7.82;5.90;;;;;;;25.63;70.21;99650.63;4460659;32;34208;-81
2022/06/10 10:18:16;;;;;;;6.87;5.57;;;;;;;24.83;72.21;99660.72;4454483;32;34103;-82
2022/06/10 10:21:13;;;;;;;8.05;6.03;;;;;;;25.29;71.47;99662.47;4456474;32;34031;-83
2022/06/10 10:23:59;;;;;;;9.32;6.00;;;;;;;25.52;69.08;99665.53;4456454;32;34584;-87
2022/06/10 10:26:49;;;;;;;8.48;6.20;;;;;;;25.36;68.86;99662.44;4459210;32;32461;-82
2022/06/10 10:29:40;;;;;;;10.48;6.97;;;;;;;25.06;71.08;99660.19;4462458;32;34132;-84
2022/06/10 10:32:30;;;;;;;11.70;6.70;;;;;;;25.13;71.82;99683.38;4462941;32;34858;-84
2022/06/10 10:35:24;;;;;;;8.60;6.43;;;;;;;25.63;71.98;99659.84;4457737;32;33354;-85
2022/06/10 10:38:13;;;;;;;8.48;6.43;;;;;;;25.94;72.08;99660.81;4459024;32;34015;-87
2022/06/10 10:41:12;;;;;;;12.07;6.70;;;;;;;24.85;75.05;99659.09;4461580;32;35612;-83
2022/06/10 10:44:07;;;;;;;10.45;6.87;;;;;;;25.02;72.58;99662.22;4456809;32;36034;-85
2022/06/10 10:47:13;;;;;;;9.55;6.30;;;;;;;25.48;71.97;99656.34;4452560;32;34441;-86
2022/06/10 10:50:05;;;;;;;12.25;6.30;;;;;;;25.43;73.56;99662.38;4461161;32;34051;-85
2022/06/10 10:52:52;;;;;;;11.05;5.80;;;;;;;25.73;71.00;99664.56;4461063;32;35690;-86
2022/06/10 10:55:38;;;;;;;8.85;6.10;;;;;;;26.08;69.03;99651.47;4459057;32;34990;-86
2022/06/10 10:58:48;;;;;;;8.82;6.10;;;;;;;25.46;69.44;99661.56;4455927;32;35463;-84
2022/06/10 11:01:44;;;;;;;9.48;6.62;;;;;;;25.24;70.57;99651.69;4461271;32;34112;-84
2022/06/10 11:04:34;;;;;;;12.70;6.35;;;;;;;25.50;71.66;99653.13;4455214;32;34053;-85
2022/06/10 11:07:22;;;;;;;8.17;6.07;;;;;;;25.76;69.43;99654.53;4460981;32;35483;-86
2022/06/10 11:10:20;;;;;;;6.78;5.55;;;;;;;25.26;70.18;99650.09;4456187;32;34632;-79
2022/06/10 11:13:07;;;;;;;9.32;5.80;;;;;;;24.94;71.28;99655.84;4452530;32;32806;-81
2022/06/10 11:15:55;;;;;;;8.93;6.10;;;;;;;25.00;71.01;99654.22;4454370;32;33732;-80
2022/06/10 11:18:41;;;;;;;8.63;5.40;;;;;;;25.57;71.03;99662.28;4456303;32;34720;-79
2022/06/10 11:21:28;;;;;;;9.82;6.10;;;;;;;25.75;70.16;99647.31;4455369;32;34118;-80
2022/06/10 11:24:16;;;;;;;10.13;5.95;;;;;;;25.87;70.33;99646.84;4458850;32;34154;-76
2022/06/10 11:27:33;;;;;;;7.12;5.95;;;;;;;25.75;68.60;99655.72;4451384;32;34695;-78
2022/06/10 11:30:31;;;;;;;7.85;5.70;;;;;;;25.34;70.15;99656.44;4463346;32;35016;-77
2022/06/10 11:33:45;;;;;;;8.13;6.03;;;;;;;25.76;68.32;99649.72;4461225;32;34689;-81
2022/06/10 11:36:44;;;;;;;9.35;6.18;;;;;;;25.77;67.24;99644.91;4452943;32;33215;-85
2022/06/10 11:39:33;;;;;;;8.80;5.75;;;;;;;25.95;67.77;99636.34;4464285;32;34754;-84
2022/06/10 11:42:30;;;;;;;7.07;5.45;;;;;;;26.13;68.17;99633.38;4461566;32;35563;-83
2022/06/10 11:45:21;;;;;;;10.70;5.72;;;;;;;26.02;68.06;99639.09;4460626;32;34584;-80
2022/06/10 11:48:13;;;;;;;7.55;6.07;;;;;;;26.57;63.64;99640.91;4462367;32;34192;-80
2022/06/10 11:51:06;;;;;;;8.82;5.87;;;;;;;26.96;65.11;99633.22;4464207;32;34653;-83
2022/06/10 11:54:18;;;;;;;10.63;5.72;;;;;;;26.94;63.54;99630.03;4465387;32;34519;-79
2022/06/10 12:00:33;;;;;;;11.35;6.07;;;;;;;27.02;65.26;99625.88;4460986;32;34177;-79
2022/06/10 12:03:57;;;;;;;8.38;5.80;;;;;;;26.63;63.41;99644.06;4458890;32;33665;-80
2022/06/10 12:06:51;;;;;;;6.90;5.78;;;;;;;26.30;66.82;99618.34;4460251;32;33201;-81
2022/06/10 12:09:48;;;;;;;8.40;5.45;;;;;;;26.49;62.37;99614.09;4462481;32;35000;-81
2022/06/10 12:12:38;;;;;;;7.12;5.43;;;;;;;26.30;61.41;99609.91;4449235;32;35293;-81
2022/06/10 12:15:30;;;;;;;9.45;5.75;;;;;;;26.90;61.70;99618.81;4449146;32;34559;-82
2022/06/10 12:18:25;;;;;;;7.37;5.45;;;;;;;27.31;60.76;99603.78;4463108;32;34061;-83
2022/06/10 12:21:18;;;;;;;13.88;6.20;;;;;;;27.24;60.94;99593.44;4462845;32;34544;-77
2022/06/10 12:24:12;;;;;;;8.75;5.47;;;;;;;27.09;60.55;99597.66;4443823;32;35117;-83
2022/06/10 12:27:08;;;;;;;9.10;5.47;;;;;;;27.17;60.13;99587.91;4449697;32;34466;-83
2022/06/10 12:30:02;;;;;;;6.72;5.57;;;;;;;27.41;59.05;99585.12;4463323;32;34940;-80
2022/06/10 12:33:03;;;;;;;9.18;5.28;;;;;;;27.50;58.68;99572.13;4457245;32;34503;-78
2022/06/10 12:35:52;;;;;;;6.72;5.05;;;;;;;27.42;57.47;99575.50;4460804;32;34149;-78
2022/06/10 12:38:40;;;;;;;10.82;5.78;;;;;;;27.57;56.96;99576.81;4462192;32;35538;-78
2022/06/10 12:41:37;;;;;;;10.70;5.18;;;;;;;26.84;59.39;99576.34;4462430;32;34614;-79
2022/06/10 12:44:26;;;;;;;7.22;5.47;;;;;;;27.79;57.59;99572.44;4459752;32;35449;-76
2022/06/10 12:47:15;;;;;;;8.70;5.35;;;;;;;28.06;55.57;99571.53;4463071;32;35049;-78
2022/06/10 12:50:16;;;;;;;6.82;4.70;;;;;;;28.31;54.87;99573.84;4463092;32;35325;-78
2022/06/10 12:53:12;;;;;;;7.00;5.32;;;;;;;27.82;55.51;99564.38;4464718;32;34996;-79
2022/06/10 12:56:00;;;;;;;12.15;5.57;;;;;;;28.35;55.18;99573.81;4462765;32;35509;-77
2022/06/10 12:59:09;;;;;;;7.72;5.25;;;;;;;28.41;54.80;99572.84;4450049;32;32853;-79
2022/06/10 13:01:56;;;;;;;7.15;5.22;;;;;;;28.21;53.97;99581.31;4461454;32;34400;-80
2022/06/10 13:04:44;;;;;;;10.18;5.47;;;;;;;27.61;56.85;99582.37;4458131;32;34906;-84
2022/06/10 13:07:38;;;;;;;6.75;5.37;;;;;;;27.65;57.34;99574.69;4461790;32;33481;-81
2022/06/10 13:10:40;;;;;;;9.50;5.20;;;;;;;27.51;56.88;99570.88;4452672;32;34102;-85
2022/06/10 13:13:27;;;;;;;9.75;5.10;;;;;;;27.47;55.90;99589.06;4463848;32;33416;-82
2022/06/10 13:16:26;;;;;;;9.02;5.40;;;;;;;27.76;55.14;99589.37;4459190;32;34912;-80
2022/06/10 13:19:31;;;;;;;6.53;5.20;;;;;;;27.86;55.84;99585.59;4463565;32;34712;-78
2022/06/10 13:22:17;;;;;;;7.75;5.32;;;;;;;27.24;54.23;99587.03;4464164;32;37670;-80
2022/06/10 13:25:18;;;;;;;6.30;4.85;;;;;;;26.67;58.63;99599.88;4457832;32;34122;-81
2022/06/10 13:28:26;;;;;;;9.73;5.53;;;;;;;26.92;57.98;99582.63;4452576;32;35004;-79